Time;durP1;ratioP1;P1;durP2;ratioP2;P2;SDS_P1;SDS_P2;PMS_P1;PMS_P2;Temp;Humidity;BMP_temperature;BMP_pressure;BME280_temperature;BME280_humidity;BME280_pressure;Samples;Min_cycle;Max_cycle;Signal;HPM_P1;HPM_P2
2022/01/30 00:01:29;;;;;;;36.83;9.00;;;;;;;;;;5049954;28;20029;-58
2022/01/30 00:03:54;;;;;;;35.93;8.97;;;;;;;;;;5041579;28;20032;-58
2022/01/30 00:06:19;;;;;;;26.40;6.72;;;;;;;;;;5049922;28;20448;-58
2022/01/30 00:08:45;;;;;;;39.00;9.33;;;;;;;;;;5048998;28;20020;-58
2022/01/30 00:11:16;;;;;;;40.42;10.27;;;;;;;;;;5049789;28;20488;-59
2022/01/30 00:13:41;;;;;;;25.80;8.20;;;;;;;;;;5050319;28;20032;-58
2022/01/30 00:16:09;;;;;;;20.00;5.90;;;;;;;;;;5049511;28;20033;-58
2022/01/30 00:21:09;;;;;;;31.20;6.38;;;;;;;;;;5049531;28;20033;-58
2022/01/30 00:23:38;;;;;;;27.35;8.60;;;;;;;;;;5035128;28;20025;-58
2022/01/30 00:26:06;;;;;;;20.10;6.07;;;;;;;;;;5047034;28;20029;-57
2022/01/30 00:28:32;;;;;;;28.35;7.25;;;;;;;;;;5040326;28;20049;-57
2022/01/30 00:30:58;;;;;;;25.55;5.78;;;;;;;;;;5030642;28;20028;-57
2022/01/30 00:33:23;;;;;;;24.48;5.65;;;;;;;;;;5030131;28;20021;-57
2022/01/30 00:35:48;;;;;;;26.05;8.27;;;;;;;;;;5035114;28;20047;-57
2022/01/30 00:38:18;;;;;;;35.33;10.10;;;;;;;;;;5048912;28;20021;-57
2022/01/30 00:40:44;;;;;;;29.33;7.65;;;;;;;;;;5049221;28;20452;-58
2022/01/30 00:43:09;;;;;;;30.60;7.75;;;;;;;;;;5044206;28;20132;-57
2022/01/30 00:45:34;;;;;;;35.83;6.27;;;;;;;;;;5038944;28;20090;-57
2022/01/30 00:48:00;;;;;;;30.77;6.87;;;;;;;;;;5042660;28;20912;-58
2022/01/30 00:50:25;;;;;;;27.47;8.93;;;;;;;;;;5042212;28;21001;-58
2022/01/30 00:52:53;;;;;;;26.77;5.93;;;;;;;;;;5044502;28;20435;-58
2022/01/30 00:55:19;;;;;;;20.42;7.75;;;;;;;;;;5041742;28;20029;-58
2022/01/30 00:57:44;;;;;;;19.55;5.90;;;;;;;;;;5038987;28;20086;-58
2022/01/30 01:00:10;;;;;;;39.33;11.07;;;;;;;;;;5032930;28;20057;-58
2022/01/30 01:02:35;;;;;;;25.55;6.13;;;;;;;;;;5034564;28;20060;-58
2022/01/30 01:05:04;;;;;;;36.70;9.83;;;;;;;;;;5034666;28;20040;-58
2022/01/30 01:07:30;;;;;;;34.90;8.23;;;;;;;;;;5054149;28;20095;-58
2022/01/30 01:10:04;;;;;;;24.63;6.18;;;;;;;;;;5052898;28;20547;-58
2022/01/30 01:23:41;;;;;;;28.23;7.35;;;;;;;;;;5032799;28;20025;-58
2022/01/30 01:26:06;;;;;;;38.10;9.20;;;;;;;;;;5054454;28;20005;-58
2022/01/30 01:28:31;;;;;;;36.83;9.90;;;;;;;;;;5052105;28;20017;-58
2022/01/30 01:30:57;;;;;;;36.47;10.05;;;;;;;;;;5054143;28;20040;-57
2022/01/30 01:33:27;;;;;;;22.55;7.30;;;;;;;;;;5050358;28;20022;-57
2022/01/30 01:35:52;;;;;;;19.63;4.63;;;;;;;;;;5033683;28;20052;-57
2022/01/30 01:38:17;;;;;;;25.37;5.63;;;;;;;;;;5034086;28;20048;-57
2022/01/30 01:40:50;;;;;;;32.05;7.18;;;;;;;;;;5032219;28;20487;-58
2022/01/30 01:43:15;;;;;;;17.75;6.10;;;;;;;;;;5048797;28;20112;-58
2022/01/30 01:45:41;;;;;;;22.05;6.78;;;;;;;;;;5052130;28;20112;-58
2022/01/30 01:48:12;;;;;;;25.15;5.30;;;;;;;;;;5052071;28;20020;-58
2022/01/30 01:50:39;;;;;;;17.90;4.45;;;;;;;;;;5051403;28;20037;-58
2022/01/30 01:53:08;;;;;;;23.60;5.97;;;;;;;;;;5053576;28;20024;-57
2022/01/30 01:55:33;;;;;;;25.48;5.72;;;;;;;;;;5032866;28;20045;-57
2022/01/30 01:57:58;;;;;;;13.30;4.10;;;;;;;;;;5032720;28;20025;-57
2022/01/30 02:00:23;;;;;;;39.63;10.05;;;;;;;;;;5031982;28;20056;-57
2022/01/30 02:02:49;;;;;;;21.30;5.50;;;;;;;;;;5034391;28;20112;-57
2022/01/30 02:05:14;;;;;;;22.05;7.30;;;;;;;;;;5031745;28;20516;-57
2022/01/30 02:08:10;;;;;;;16.13;6.55;;;;;;;;;;5033584;28;20013;-57
2022/01/30 02:10:41;;;;;;;19.98;6.68;;;;;;;;;;5034381;28;20563;-57
2022/01/30 02:13:33;;;;;;;22.65;6.63;;;;;;;;;;5053140;28;20020;-57
2022/01/30 02:24:19;;;;;;;21.77;5.53;;;;;;;;;;5051696;28;20040;-56
2022/01/30 02:26:46;;;;;;;26.30;7.78;;;;;;;;;;5052760;28;20376;-56
2022/01/30 02:29:12;;;;;;;33.38;7.53;;;;;;;;;;5049126;28;20032;-56
2022/01/30 02:31:39;;;;;;;38.30;7.35;;;;;;;;;;5033074;28;20124;-56
2022/01/30 02:34:04;;;;;;;27.88;6.80;;;;;;;;;;5049563;28;20040;-56
2022/01/30 02:36:30;;;;;;;27.37;6.90;;;;;;;;;;5052486;28;20019;-56
2022/01/30 02:38:59;;;;;;;37.03;9.17;;;;;;;;;;5051132;28;20403;-57
2022/01/30 02:41:24;;;;;;;29.73;7.75;;;;;;;;;;5052868;28;20435;-56
2022/01/30 02:44:08;;;;;;;18.00;7.18;;;;;;;;;;5047886;28;20600;-56
2022/01/30 02:46:38;;;;;;;18.63;6.35;;;;;;;;;;5033071;28;20029;-56
2022/01/30 02:49:23;;;;;;;32.25;8.15;;;;;;;;;;5031425;28;20033;-57
2022/01/30 02:52:05;;;;;;;28.50;9.13;;;;;;;;;;5039566;28;20477;-57
2022/01/30 02:54:31;;;;;;;17.27;5.63;;;;;;;;;;5038136;28;20041;-56
2022/01/30 02:56:56;;;;;;;24.63;5.80;;;;;;;;;;5032774;28;20510;-58
2022/01/30 02:59:22;;;;;;;26.70;6.25;;;;;;;;;;5049154;28;20041;-58
2022/01/30 03:01:47;;;;;;;18.73;7.60;;;;;;;;;;5052181;28;20032;-58
2022/01/30 03:04:12;;;;;;;31.60;9.23;;;;;;;;;;5050607;28;20060;-58
2022/01/30 03:06:38;;;;;;;13.23;5.28;;;;;;;;;;5052203;28;20424;-58
2022/01/30 03:09:04;;;;;;;22.55;4.80;;;;;;;;;;5049575;28;20487;-58
2022/01/30 03:11:29;;;;;;;22.67;5.97;;;;;;;;;;5052126;28;20029;-58
2022/01/30 03:13:54;;;;;;;16.73;5.97;;;;;;;;;;5046557;28;20087;-58
2022/01/30 03:16:21;;;;;;;25.65;9.75;;;;;;;;;;5049423;28;20032;-58
2022/01/30 03:18:46;;;;;;;25.23;6.05;;;;;;;;;;5030106;28;20500;-58
2022/01/30 03:21:11;;;;;;;20.27;5.03;;;;;;;;;;5031931;28;20028;-58
2022/01/30 03:23:38;;;;;;;22.17;6.95;;;;;;;;;;5050546;28;20057;-57
2022/01/30 03:26:03;;;;;;;22.60;5.22;;;;;;;;;;5041149;28;20013;-57
2022/01/30 03:28:30;;;;;;;14.90;5.85;;;;;;;;;;5030112;28;20018;-57
2022/01/30 03:31:00;;;;;;;16.92;4.95;;;;;;;;;;5032004;28;20025;-57
2022/01/30 03:33:25;;;;;;;20.00;8.27;;;;;;;;;;5030621;28;20100;-57
2022/01/30 03:35:50;;;;;;;18.60;5.27;;;;;;;;;;5031558;28;20492;-57
2022/01/30 03:38:15;;;;;;;18.13;7.55;;;;;;;;;;5031976;28;20448;-57
2022/01/30 03:40:43;;;;;;;27.83;9.10;;;;;;;;;;5030202;28;20037;-57
2022/01/30 03:43:08;;;;;;;19.05;5.40;;;;;;;;;;5031515;28;20811;-57
2022/01/30 03:45:33;;;;;;;23.65;7.00;;;;;;;;;;5030318;28;20037;-57
2022/01/30 03:47:58;;;;;;;13.07;5.82;;;;;;;;;;5036143;28;20029;-57
2022/01/30 03:50:24;;;;;;;19.30;5.70;;;;;;;;;;5029845;28;20041;-57
2022/01/30 03:52:49;;;;;;;20.02;4.38;;;;;;;;;;5031952;28;20083;-57
2022/01/30 03:55:14;;;;;;;51.08;7.28;;;;;;;;;;5049908;28;20045;-57
2022/01/30 03:57:39;;;;;;;26.83;6.97;;;;;;;;;;5050729;28;20027;-58
2022/01/30 04:00:05;;;;;;;30.30;5.55;;;;;;;;;;5049688;28;20037;-58
2022/01/30 04:02:30;;;;;;;32.95;8.20;;;;;;;;;;5050902;28;20439;-58
2022/01/30 04:04:55;;;;;;;33.73;7.30;;;;;;;;;;5049305;28;20037;-57
2022/01/30 04:07:21;;;;;;;17.50;7.82;;;;;;;;;;5051208;28;20025;-58
2022/01/30 04:09:46;;;;;;;26.60;6.05;;;;;;;;;;5030078;28;20492;-58
2022/01/30 04:12:12;;;;;;;17.55;4.50;;;;;;;;;;5030727;28;20033;-57
2022/01/30 04:14:38;;;;;;;13.95;6.28;;;;;;;;;;5032812;28;20567;-57
2022/01/30 04:17:04;;;;;;;27.05;9.00;;;;;;;;;;5051079;28;20092;-58
2022/01/30 04:19:29;;;;;;;20.13;7.03;;;;;;;;;;5048983;28;20048;-58
2022/01/30 04:21:54;;;;;;;16.65;5.43;;;;;;;;;;5039608;28;20040;-58
2022/01/30 04:24:20;;;;;;;20.45;6.00;;;;;;;;;;5029895;28;20057;-57
2022/01/30 04:26:45;;;;;;;21.53;5.87;;;;;;;;;;5030623;28;20025;-57
2022/01/30 04:29:10;;;;;;;21.67;7.82;;;;;;;;;;5029746;28;20026;-57
2022/01/30 04:31:35;;;;;;;30.48;6.63;;;;;;;;;;5047417;28;20056;-57
2022/01/30 04:34:01;;;;;;;27.48;6.65;;;;;;;;;;5048683;28;20036;-58
2022/01/30 04:36:35;;;;;;;28.98;8.07;;;;;;;;;;5051106;28;20064;-58
2022/01/30 05:00:49;;;;;;;22.52;5.25;;;;;;;;;;5049098;28;20407;-58
2022/01/30 05:03:39;;;;;;;20.33;6.68;;;;;;;;;;5049104;28;20028;-58
2022/01/30 05:06:09;;;;;;;19.92;6.53;;;;;;;;;;5029350;28;20099;-58
2022/01/30 05:08:35;;;;;;;25.88;6.57;;;;;;;;;;5037965;28;20644;-58
2022/01/30 05:11:04;;;;;;;20.35;6.05;;;;;;;;;;5050394;28;20013;-57
2022/01/30 05:13:32;;;;;;;38.08;8.02;;;;;;;;;;5049271;28;20098;-58
2022/01/30 05:15:57;;;;;;;21.75;7.30;;;;;;;;;;5050625;28;20033;-57
2022/01/30 05:18:23;;;;;;;38.30;8.50;;;;;;;;;;5044858;28;20045;-57
2022/01/30 05:20:48;;;;;;;23.30;5.85;;;;;;;;;;5030353;28;20394;-57
2022/01/30 05:23:15;;;;;;;26.10;5.57;;;;;;;;;;5030592;28;20028;-58
2022/01/30 05:25:40;;;;;;;21.42;6.68;;;;;;;;;;5028459;28;20460;-57
2022/01/30 05:28:06;;;;;;;24.48;7.85;;;;;;;;;;5030849;28;20029;-58
2022/01/30 05:30:32;;;;;;;28.55;9.48;;;;;;;;;;5029144;28;20068;-58
2022/01/30 05:32:57;;;;;;;20.35;5.60;;;;;;;;;;5040443;28;20441;-58
2022/01/30 05:35:22;;;;;;;18.65;6.18;;;;;;;;;;5051234;28;20047;-57
2022/01/30 05:37:48;;;;;;;27.13;7.43;;;;;;;;;;5033836;28;20061;-58
2022/01/30 05:40:13;;;;;;;26.60;6.25;;;;;;;;;;5038794;28;20045;-57
2022/01/30 05:42:39;;;;;;;33.67;7.05;;;;;;;;;;5050248;28;20033;-57
2022/01/30 05:45:19;;;;;;;34.08;9.27;;;;;;;;;;5041967;28;20110;-57
2022/01/30 05:47:50;;;;;;;28.08;7.25;;;;;;;;;;5043947;28;20022;-57
2022/01/30 05:50:16;;;;;;;26.08;7.63;;;;;;;;;;5046635;28;20129;-57
2022/01/30 05:52:41;;;;;;;34.90;8.55;;;;;;;;;;5035039;28;20100;-57
2022/01/30 05:55:06;;;;;;;25.85;8.60;;;;;;;;;;5032827;28;20042;-57
2022/01/30 05:57:31;;;;;;;33.88;5.63;;;;;;;;;;5033113;28;20024;-57
2022/01/30 05:59:56;;;;;;;21.70;7.53;;;;;;;;;;5034086;28;20091;-57
2022/01/30 06:02:22;;;;;;;63.27;13.93;;;;;;;;;;5040493;28;20025;-57
2022/01/30 06:04:47;;;;;;;25.92;6.35;;;;;;;;;;5051050;28;20413;-58
2022/01/30 06:07:13;;;;;;;32.28;9.63;;;;;;;;;;5037261;28;20018;-57
2022/01/30 06:09:38;;;;;;;28.20;8.25;;;;;;;;;;5045856;28;20127;-57
2022/01/30 06:12:04;;;;;;;40.97;7.25;;;;;;;;;;5040636;28;20032;-57
2022/01/30 06:14:29;;;;;;;30.48;10.23;;;;;;;;;;5047500;28;20048;-57
2022/01/30 06:16:54;;;;;;;44.07;13.17;;;;;;;;;;5040209;28;20014;-57
2022/01/30 06:19:22;;;;;;;36.55;14.05;;;;;;;;;;5048376;28;20499;-57
2022/01/30 06:21:47;;;;;;;44.70;12.43;;;;;;;;;;5043463;28;20388;-57
2022/01/30 06:24:12;;;;;;;26.88;10.15;;;;;;;;;;5046053;28;20037;-57
2022/01/30 06:26:37;;;;;;;34.13;9.67;;;;;;;;;;5045485;28;20021;-57
2022/01/30 06:29:02;;;;;;;42.30;9.80;;;;;;;;;;5033348;28;20458;-57
2022/01/30 06:31:28;;;;;;;40.92;8.48;;;;;;;;;;5046744;28;20104;-57
2022/01/30 06:33:53;;;;;;;43.35;9.85;;;;;;;;;;5030686;28;20037;-56
2022/01/30 06:36:18;;;;;;;46.05;11.35;;;;;;;;;;5045522;28;20052;-57
2022/01/30 06:38:43;;;;;;;39.00;10.53;;;;;;;;;;5040958;28;20038;-57
2022/01/30 06:41:08;;;;;;;40.97;10.13;;;;;;;;;;5041711;28;20431;-57
2022/01/30 06:43:34;;;;;;;28.85;8.48;;;;;;;;;;5035554;28;20108;-58
2022/01/30 06:45:59;;;;;;;36.40;8.50;;;;;;;;;;5042331;28;20017;-57
2022/01/30 06:48:24;;;;;;;47.10;12.70;;;;;;;;;;5037178;28;20514;-56
2022/01/30 06:50:49;;;;;;;42.20;10.40;;;;;;;;;;5040117;28;20020;-57
2022/01/30 06:53:14;;;;;;;44.72;13.10;;;;;;;;;;5040932;28;20032;-57
2022/01/30 06:55:42;;;;;;;50.20;14.20;;;;;;;;;;5038392;28;20450;-56
2022/01/30 06:58:11;;;;;;;48.97;10.25;;;;;;;;;;5042033;28;20113;-56
2022/01/30 07:00:36;;;;;;;41.80;10.77;;;;;;;;;;5048468;28;20048;-56
2022/01/30 07:03:01;;;;;;;54.53;14.45;;;;;;;;;;5040191;28;20029;-56
2022/01/30 07:05:27;;;;;;;38.95;10.35;;;;;;;;;;5038013;28;20037;-56
2022/01/30 07:07:52;;;;;;;38.72;10.13;;;;;;;;;;5033337;28;20020;-57
2022/01/30 07:10:17;;;;;;;45.65;12.73;;;;;;;;;;5033395;28;20447;-57
2022/01/30 07:12:43;;;;;;;26.33;9.10;;;;;;;;;;5049728;28;20040;-57
2022/01/30 07:15:08;;;;;;;42.17;9.73;;;;;;;;;;5048740;28;20029;-57
2022/01/30 07:17:33;;;;;;;47.67;12.43;;;;;;;;;;5044207;28;20017;-57
2022/01/30 07:19:58;;;;;;;57.67;11.93;;;;;;;;;;5034789;28;20044;-57
2022/01/30 07:22:23;;;;;;;34.70;9.60;;;;;;;;;;5050362;28;21061;-57
2022/01/30 07:24:49;;;;;;;40.93;13.03;;;;;;;;;;5049529;28;20048;-55
2022/01/30 07:27:14;;;;;;;39.33;11.27;;;;;;;;;;5037994;28;21037;-54
2022/01/30 07:29:39;;;;;;;60.78;17.45;;;;;;;;;;5030087;28;21007;-53
2022/01/30 07:32:04;;;;;;;37.50;8.53;;;;;;;;;;5037194;28;20484;-54
2022/01/30 07:34:29;;;;;;;38.15;10.18;;;;;;;;;;5032470;28;20464;-54
2022/01/30 07:36:57;;;;;;;36.83;7.30;;;;;;;;;;5039834;28;20036;-54
2022/01/30 07:39:27;;;;;;;51.50;7.75;;;;;;;;;;5049195;28;20493;-55
2022/01/30 07:41:52;;;;;;;42.72;9.93;;;;;;;;;;5051176;28;20029;-54
2022/01/30 07:44:17;;;;;;;44.30;11.57;;;;;;;;;;5046997;28;20515;-54
2022/01/30 07:46:43;;;;;;;45.15;11.30;;;;;;;;;;5050201;28;20025;-54
2022/01/30 07:49:08;;;;;;;36.33;9.00;;;;;;;;;;5049189;28;20037;-54
2022/01/30 07:51:33;;;;;;;58.70;13.38;;;;;;;;;;5048161;28;20079;-54
2022/01/30 07:53:58;;;;;;;34.08;10.90;;;;;;;;;;5036911;28;20045;-54
2022/01/30 07:56:24;;;;;;;38.97;9.48;;;;;;;;;;5031573;28;20031;-54
2022/01/30 07:58:49;;;;;;;53.70;13.63;;;;;;;;;;5028307;28;20120;-55
2022/01/30 08:01:14;;;;;;;35.05;9.25;;;;;;;;;;5031677;28;20029;-54
2022/01/30 08:03:39;;;;;;;47.13;11.47;;;;;;;;;;5029313;28;20118;-55
2022/01/30 08:06:04;;;;;;;52.78;14.20;;;;;;;;;;5030079;28;20423;-54
2022/01/30 08:08:30;;;;;;;51.07;13.13;;;;;;;;;;5029781;28;20056;-55
2022/01/30 08:10:55;;;;;;;63.08;14.13;;;;;;;;;;5040822;28;20453;-56
2022/01/30 08:13:20;;;;;;;42.65;11.55;;;;;;;;;;5038925;28;20687;-53
2022/01/30 08:15:46;;;;;;;48.42;12.38;;;;;;;;;;5034838;28;20033;-53
2022/01/30 08:18:11;;;;;;;50.63;11.20;;;;;;;;;;5038375;28;20038;-53
2022/01/30 08:20:36;;;;;;;42.35;12.68;;;;;;;;;;5037568;28;20033;-55
2022/01/30 08:23:07;;;;;;;42.55;12.57;;;;;;;;;;5036577;28;20070;-54
2022/01/30 08:25:32;;;;;;;41.25;11.65;;;;;;;;;;5034533;28;20025;-54
2022/01/30 08:27:58;;;;;;;35.42;10.15;;;;;;;;;;5035802;28;20029;-54
2022/01/30 08:30:23;;;;;;;34.85;11.25;;;;;;;;;;5035414;28;20033;-53
2022/01/30 08:32:49;;;;;;;60.88;15.35;;;;;;;;;;5039828;28;20052;-54
2022/01/30 08:35:15;;;;;;;37.47;10.63;;;;;;;;;;5036770;28;20041;-53
2022/01/30 08:37:40;;;;;;;58.88;13.30;;;;;;;;;;5042169;28;20514;-55
2022/01/30 08:40:07;;;;;;;53.10;16.30;;;;;;;;;;5036750;28;20043;-54
2022/01/30 08:42:33;;;;;;;41.92;11.07;;;;;;;;;;5038434;28;20018;-53
2022/01/30 08:44:58;;;;;;;55.42;13.93;;;;;;;;;;5033061;28;20040;-55
2022/01/30 08:47:23;;;;;;;47.17;16.33;;;;;;;;;;5032433;28;20032;-54
2022/01/30 08:49:48;;;;;;;35.20;10.03;;;;;;;;;;5037281;28;20487;-54
2022/01/30 08:52:16;;;;;;;53.85;14.07;;;;;;;;;;5040894;28;20431;-55
2022/01/30 08:54:41;;;;;;;62.40;19.13;;;;;;;;;;5037186;28;20037;-54
2022/01/30 08:57:06;;;;;;;43.30;10.43;;;;;;;;;;5037961;28;20033;-53
2022/01/30 08:59:31;;;;;;;50.30;11.67;;;;;;;;;;5037699;28;20071;-54
2022/01/30 09:01:57;;;;;;;56.95;14.43;;;;;;;;;;5037825;28;20443;-55
2022/01/30 09:04:22;;;;;;;52.90;10.57;;;;;;;;;;5028176;28;20416;-54
2022/01/30 09:06:47;;;;;;;45.47;11.47;;;;;;;;;;5035033;28;20048;-55
2022/01/30 09:09:12;;;;;;;51.95;13.30;;;;;;;;;;5046757;28;20472;-53
2022/01/30 09:11:37;;;;;;;48.65;11.35;;;;;;;;;;5052628;28;20059;-54
2022/01/30 09:14:02;;;;;;;28.55;8.80;;;;;;;;;;5047021;28;20043;-54
2022/01/30 09:16:28;;;;;;;40.15;11.48;;;;;;;;;;5044212;28;20039;-54
2022/01/30 09:18:53;;;;;;;58.13;13.90;;;;;;;;;;5047500;28;20651;-54
2022/01/30 09:21:18;;;;;;;40.70;11.67;;;;;;;;;;5043680;28;20463;-53
2022/01/30 09:23:43;;;;;;;53.30;14.27;;;;;;;;;;5034750;28;20487;-55
2022/01/30 09:26:08;;;;;;;35.05;9.15;;;;;;;;;;5036856;28;20025;-52
2022/01/30 09:28:33;;;;;;;51.53;12.33;;;;;;;;;;5029974;28;20025;-54
2022/01/30 09:30:59;;;;;;;45.08;11.25;;;;;;;;;;5045884;28;20861;-54
2022/01/30 09:33:24;;;;;;;33.60;9.97;;;;;;;;;;5039622;28;20021;-54
2022/01/30 09:35:49;;;;;;;27.03;10.27;;;;;;;;;;5039967;28;20466;-54
2022/01/30 09:38:14;;;;;;;39.30;9.77;;;;;;;;;;5042720;28;20558;-55
2022/01/30 09:40:39;;;;;;;50.83;15.80;;;;;;;;;;5040737;28;20444;-55
2022/01/30 09:43:04;;;;;;;43.05;12.85;;;;;;;;;;5042831;28;20024;-55
2022/01/30 09:45:30;;;;;;;46.05;14.80;;;;;;;;;;5036342;28;20038;-56
2022/01/30 09:47:56;;;;;;;42.60;11.27;;;;;;;;;;5044995;28;20013;-56
2022/01/30 09:50:21;;;;;;;46.97;10.30;;;;;;;;;;5036449;28;20541;-55
2022/01/30 09:52:47;;;;;;;75.45;20.95;;;;;;;;;;5038696;28;20469;-55
2022/01/30 09:55:12;;;;;;;43.67;11.87;;;;;;;;;;5051778;28;20044;-55
2022/01/30 09:57:37;;;;;;;55.53;15.82;;;;;;;;;;5038791;28;20021;-54
2022/01/30 10:00:06;;;;;;;57.30;15.32;;;;;;;;;;5038515;28;20049;-54
2022/01/30 10:02:31;;;;;;;48.38;10.55;;;;;;;;;;5042587;28;20032;-55
2022/01/30 10:04:57;;;;;;;44.42;14.02;;;;;;;;;;5040721;28;20037;-55
2022/01/30 10:07:26;;;;;;;42.97;12.70;;;;;;;;;;5040791;28;20041;-55
2022/01/30 10:09:51;;;;;;;54.67;15.73;;;;;;;;;;5038308;28;20033;-54
2022/01/30 10:12:20;;;;;;;45.53;11.07;;;;;;;;;;5039444;28;20480;-55
2022/01/30 10:14:59;;;;;;;52.35;13.07;;;;;;;;;;5037405;28;20440;-55
2022/01/30 10:17:24;;;;;;;;;;;;;;;;;;5041380;28;20633;-55
2022/01/30 10:19:58;;;;;;;32.35;12.02;;;;;;;;;;5035999;28;19921;-55
2022/01/30 10:22:23;;;;;;;43.40;13.88;;;;;;;;;;5037408;28;20021;-54
2022/01/30 10:24:48;;;;;;;44.08;12.38;;;;;;;;;;5037201;28;20048;-54
2022/01/30 10:27:18;;;;;;;44.77;11.80;;;;;;;;;;5039544;28;20037;-55
2022/01/30 10:29:43;;;;;;;41.17;13.52;;;;;;;;;;5034551;28;20208;-55
2022/01/30 10:32:09;;;;;;;55.50;14.13;;;;;;;;;;5038854;28;20547;-54
2022/01/30 10:34:35;;;;;;;49.05;12.18;;;;;;;;;;5036979;28;20087;-54
2022/01/30 10:37:39;;;;;;;40.95;12.07;;;;;;;;;;5041839;28;20546;-55
2022/01/30 10:40:13;;;;;;;46.00;11.90;;;;;;;;;;5018075;28;20037;-55
2022/01/30 10:42:40;;;;;;;45.78;12.82;;;;;;;;;;5034912;28;20029;-55
2022/01/30 10:45:06;;;;;;;42.80;13.13;;;;;;;;;;5034275;28;20052;-55
2022/01/30 10:47:32;;;;;;;36.63;10.32;;;;;;;;;;5038403;28;20048;-54
2022/01/30 10:49:58;;;;;;;34.33;11.02;;;;;;;;;;5036048;28;20480;-54
2022/01/30 10:52:23;;;;;;;46.80;10.00;;;;;;;;;;5041069;28;20059;-55
2022/01/30 10:54:49;;;;;;;49.08;12.77;;;;;;;;;;5034675;28;20029;-54
2022/01/30 10:57:15;;;;;;;43.30;11.68;;;;;;;;;;5035867;28;20055;-54
2022/01/30 10:59:43;;;;;;;35.78;10.60;;;;;;;;;;5035758;28;20041;-53
2022/01/30 11:02:15;;;;;;;42.70;13.85;;;;;;;;;;5038780;28;20013;-55
2022/01/30 11:04:41;;;;;;;39.60;11.98;;;;;;;;;;5038871;28;20029;-54
2022/01/30 11:07:06;;;;;;;43.03;11.75;;;;;;;;;;5050996;28;20059;-55
2022/01/30 11:09:43;;;;;;;45.60;12.15;;;;;;;;;;5042119;28;20187;-55
2022/01/30 11:12:13;;;;;;;40.72;12.23;;;;;;;;;;5037952;28;20105;-55
2022/01/30 11:17:15;;;;;;;47.00;13.60;;;;;;;;;;5040462;28;20029;-53
2022/01/30 11:19:42;;;;;;;43.83;12.30;;;;;;;;;;5037024;28;20136;-53
2022/01/30 11:22:11;;;;;;;38.75;11.77;;;;;;;;;;5038522;28;20025;-53
2022/01/30 11:25:03;;;;;;;32.15;9.70;;;;;;;;;;5035983;28;20042;-54
2022/01/30 11:27:28;;;;;;;74.10;16.23;;;;;;;;;;5036003;28;20043;-53
2022/01/30 11:29:54;;;;;;;43.25;11.75;;;;;;;;;;5036724;28;20075;-53
2022/01/30 11:32:20;;;;;;;69.22;16.75;;;;;;;;;;5041315;28;20013;-54
2022/01/30 11:34:45;;;;;;;49.65;12.57;;;;;;;;;;5038227;28;20033;-55
2022/01/30 11:37:14;;;;;;;46.08;10.63;;;;;;;;;;5040680;28;20381;-53
2022/01/30 11:39:44;;;;;;;43.92;11.55;;;;;;;;;;5044345;28;20492;-54
2022/01/30 11:42:09;;;;;;;47.92;10.50;;;;;;;;;;5034491;28;20563;-52
2022/01/30 11:44:35;;;;;;;49.72;11.38;;;;;;;;;;5049715;28;20075;-53
2022/01/30 11:47:03;;;;;;;40.15;13.50;;;;;;;;;;5048312;28;20021;-54
2022/01/30 11:49:39;;;;;;;47.88;10.73;;;;;;;;;;5034305;28;20056;-54
2022/01/30 11:52:06;;;;;;;44.17;10.05;;;;;;;;;;5046246;28;20052;-54
2022/01/30 11:54:38;;;;;;;37.65;10.55;;;;;;;;;;5048598;28;20037;-53
2022/01/30 11:57:22;;;;;;;47.88;15.13;;;;;;;;;;5041167;28;20021;-54
2022/01/30 11:59:51;;;;;;;44.08;8.30;;;;;;;;;;5037208;28;20444;-53
2022/01/30 12:02:33;;;;;;;43.70;9.75;;;;;;;;;;5048908;28;20021;-54
2022/01/30 12:05:02;;;;;;;35.97;8.98;;;;;;;;;;5040900;28;20098;-52
2022/01/30 12:07:32;;;;;;;43.00;12.52;;;;;;;;;;5043883;28;20087;-53
2022/01/30 12:10:18;;;;;;;37.08;10.02;;;;;;;;;;5037966;28;20041;-52
2022/01/30 12:12:53;;;;;;;36.80;12.13;;;;;;;;;;5028404;28;20484;-53
2022/01/30 12:15:37;;;;;;;43.45;11.23;;;;;;;;;;5039461;28;20045;-53
2022/01/30 12:18:03;;;;;;;40.03;11.18;;;;;;;;;;5050571;28;20056;-54
2022/01/30 12:20:30;;;;;;;54.85;11.98;;;;;;;;;;5039062;28;20048;-54
2022/01/30 12:22:55;;;;;;;46.58;12.27;;;;;;;;;;5040145;28;20387;-54
2022/01/30 12:25:24;;;;;;;47.15;8.23;;;;;;;;;;5037646;28;20025;-52
2022/01/30 12:27:50;;;;;;;46.90;13.25;;;;;;;;;;5043228;28;20075;-54
2022/01/30 12:30:29;;;;;;;40.83;12.93;;;;;;;;;;5043416;28;20488;-53
2022/01/30 12:32:54;;;;;;;39.08;11.50;;;;;;;;;;5040326;28;20507;-53
2022/01/30 12:35:20;;;;;;;36.47;9.73;;;;;;;;;;5036604;28;20053;-54
2022/01/30 12:37:45;;;;;;;34.58;11.32;;;;;;;;;;5034866;28;20415;-53
2022/01/30 12:40:10;;;;;;;44.25;10.13;;;;;;;;;;5047938;28;20037;-53
2022/01/30 12:42:35;;;;;;;38.00;9.85;;;;;;;;;;5052693;28;20025;-53
2022/01/30 12:45:02;;;;;;;40.97;12.30;;;;;;;;;;5052985;28;20549;-53
2022/01/30 12:47:27;;;;;;;39.60;9.05;;;;;;;;;;5048117;28;20039;-53
2022/01/30 12:49:57;;;;;;;45.60;9.70;;;;;;;;;;5038847;28;20189;-54
2022/01/30 12:52:33;;;;;;;50.17;17.50;;;;;;;;;;5037677;28;20472;-53
2022/01/30 12:55:02;;;;;;;32.40;10.85;;;;;;;;;;5052022;28;20041;-52
2022/01/30 12:57:28;;;;;;;34.92;8.50;;;;;;;;;;5043167;28;20029;-53
2022/01/30 12:59:56;;;;;;;32.03;8.82;;;;;;;;;;5047048;28;20082;-54
2022/01/30 13:02:21;;;;;;;37.28;9.10;;;;;;;;;;5052582;28;20021;-54
2022/01/30 13:04:47;;;;;;;43.58;12.98;;;;;;;;;;5051525;28;20423;-53
2022/01/30 13:07:13;;;;;;;42.65;15.52;;;;;;;;;;5053593;28;20151;-54
2022/01/30 13:09:38;;;;;;;29.85;9.82;;;;;;;;;;5037607;28;20091;-54
2022/01/30 13:12:12;;;;;;;50.13;19.58;;;;;;;;;;5051813;28;20100;-54
2022/01/30 13:14:38;;;;;;;40.95;12.30;;;;;;;;;;5049234;28;20056;-55
2022/01/30 13:17:03;;;;;;;39.97;8.52;;;;;;;;;;5045897;28;20091;-54
2022/01/30 13:19:39;;;;;;;44.67;12.57;;;;;;;;;;5047936;28;20045;-53
2022/01/30 13:22:05;;;;;;;43.70;9.38;;;;;;;;;;5034597;28;20032;-54
2022/01/30 13:24:31;;;;;;;40.85;10.38;;;;;;;;;;5032620;28;20623;-55
2022/01/30 13:27:07;;;;;;;41.80;12.35;;;;;;;;;;5034636;28;20114;-54
2022/01/30 13:29:36;;;;;;;40.03;8.70;;;;;;;;;;5036269;28;20095;-55
2022/01/30 13:32:06;;;;;;;45.67;11.57;;;;;;;;;;5040531;28;20018;-53
2022/01/30 13:34:31;;;;;;;42.38;14.50;;;;;;;;;;5041584;28;20041;-53
2022/01/30 13:37:04;;;;;;;39.42;11.23;;;;;;;;;;5038185;28;20025;-53
2022/01/30 13:39:51;;;;;;;41.72;9.20;;;;;;;;;;5040078;28;20095;-53
2022/01/30 13:44:52;;;;;;;44.42;11.60;;;;;;;;;;5037511;28;20501;-52
2022/01/30 13:47:17;;;;;;;;;;;;;;;;;;5041226;28;20021;-54
2022/01/30 13:49:43;;;;;;;47.08;11.73;;;;;;;;;;5038927;28;19962;-54
2022/01/30 13:52:10;;;;;;;62.08;15.52;;;;;;;;;;5041327;28;20025;-54
2022/01/30 13:54:37;;;;;;;44.25;10.05;;;;;;;;;;5038383;28;20033;-53
2022/01/30 13:57:11;;;;;;;54.22;14.20;;;;;;;;;;5039821;28;20026;-54
2022/01/30 13:59:37;;;;;;;44.47;13.52;;;;;;;;;;5038550;28;20405;-54
2022/01/30 14:02:03;;;;;;;53.72;11.60;;;;;;;;;;5039923;28;20021;-53
2022/01/30 14:04:32;;;;;;;64.18;12.13;;;;;;;;;;5038664;28;20052;-54
2022/01/30 14:07:00;;;;;;;32.42;8.20;;;;;;;;;;5041776;28;20016;-53
2022/01/30 14:09:35;;;;;;;42.80;10.90;;;;;;;;;;5037411;28;20034;-54
2022/01/30 14:12:02;;;;;;;40.40;10.50;;;;;;;;;;5045795;28;20048;-53
2022/01/30 14:14:28;;;;;;;34.85;11.07;;;;;;;;;;5041044;28;20412;-52
2022/01/30 14:16:59;;;;;;;39.08;11.15;;;;;;;;;;5042646;28;20017;-54
2022/01/30 14:19:27;;;;;;;38.47;10.77;;;;;;;;;;5040865;28;20046;-53
2022/01/30 14:21:53;;;;;;;43.53;14.43;;;;;;;;;;5041764;28;20068;-53
2022/01/30 14:24:20;;;;;;;44.50;13.13;;;;;;;;;;5038317;28;20038;-54
2022/01/30 14:26:45;;;;;;;37.47;9.63;;;;;;;;;;5042151;28;20468;-53
2022/01/30 14:29:12;;;;;;;40.00;13.47;;;;;;;;;;5040746;28;20048;-54
2022/01/30 14:31:50;;;;;;;44.33;10.88;;;;;;;;;;5039520;28;20022;-54
2022/01/30 14:34:15;;;;;;;32.88;10.15;;;;;;;;;;5039230;28;20128;-53
2022/01/30 14:36:41;;;;;;;55.73;15.20;;;;;;;;;;5043687;28;20120;-54
2022/01/30 14:39:06;;;;;;;40.17;9.40;;;;;;;;;;5049264;28;20968;-52
2022/01/30 14:41:32;;;;;;;49.40;12.68;;;;;;;;;;5039141;28;20517;-54
2022/01/30 14:43:58;;;;;;;38.35;11.35;;;;;;;;;;5038045;28;20044;-54
2022/01/30 14:46:23;;;;;;;45.78;9.13;;;;;;;;;;5039039;28;20071;-54
2022/01/30 14:48:48;;;;;;;64.70;13.80;;;;;;;;;;5034087;28;20129;-54
2022/01/30 14:51:13;;;;;;;50.33;11.43;;;;;;;;;;5038156;28;20021;-54
2022/01/30 14:53:38;;;;;;;45.87;12.27;;;;;;;;;;5039035;28;20024;-55
2022/01/30 14:56:03;;;;;;;51.63;13.50;;;;;;;;;;5042087;28;20977;-54
2022/01/30 14:58:29;;;;;;;45.33;8.95;;;;;;;;;;5040564;28;20053;-54
2022/01/30 15:00:55;;;;;;;46.50;11.27;;;;;;;;;;5048140;28;20017;-54
2022/01/30 15:03:21;;;;;;;37.35;13.32;;;;;;;;;;5040375;28;20032;-54
2022/01/30 15:05:47;;;;;;;60.50;15.73;;;;;;;;;;5039115;28;20033;-53
2022/01/30 15:08:12;;;;;;;42.83;9.60;;;;;;;;;;5037309;28;20017;-54
2022/01/30 15:10:37;;;;;;;53.87;15.20;;;;;;;;;;5038178;28;20067;-54
2022/01/30 15:13:07;;;;;;;40.55;14.30;;;;;;;;;;5042484;28;20558;-54